sensor_id;sensor_type;location;lat;lon;timestamp;P1;durP1;ratioP1;P2;durP2;ratioP2
7334;SDS011;3708;42.632;23.378;2023-08-12T00:00:21;8.23;;;3.77;;
7334;SDS011;3708;42.632;23.378;2023-08-12T00:02:50;3.17;;;2.70;;
7334;SDS011;3708;42.632;23.378;2023-08-12T00:05:17;3.00;;;2.70;;
7334;SDS011;3708;42.632;23.378;2023-08-12T00:07:44;4.40;;;3.13;;
7334;SDS011;3708;42.632;23.378;2023-08-12T00:10:12;3.97;;;3.00;;
7334;SDS011;3708;42.632;23.378;2023-08-12T00:12:39;3.77;;;2.93;;
7334;SDS011;3708;42.632;23.378;2023-08-12T00:15:06;4.60;;;3.10;;
7334;SDS011;3708;42.632;23.378;2023-08-12T00:17:35;3.50;;;2.80;;
7334;SDS011;3708;42.632;23.378;2023-08-12T00:20:04;5.63;;;3.10;;
7334;SDS011;3708;42.632;23.378;2023-08-12T00:22:33;6.23;;;3.70;;
7334;SDS011;3708;42.632;23.378;2023-08-12T00:25:00;3.70;;;3.00;;
7334;SDS011;3708;42.632;23.378;2023-08-12T00:27:27;5.10;;;3.03;;
7334;SDS011;3708;42.632;23.378;2023-08-12T00:29:55;4.63;;;3.33;;
7334;SDS011;3708;42.632;23.378;2023-08-12T00:32:22;3.87;;;2.97;;
7334;SDS011;3708;42.632;23.378;2023-08-12T00:34:49;6.90;;;2.90;;
7334;SDS011;3708;42.632;23.378;2023-08-12T00:37:17;3.80;;;3.10;;
7334;SDS011;3708;42.632;23.378;2023-08-12T00:39:44;3.37;;;2.90;;
7334;SDS011;3708;42.632;23.378;2023-08-12T00:42:11;3.83;;;2.83;;
7334;SDS011;3708;42.632;23.378;2023-08-12T00:44:38;4.90;;;2.90;;
7334;SDS011;3708;42.632;23.378;2023-08-12T00:47:05;3.37;;;3.07;;
7334;SDS011;3708;42.632;23.378;2023-08-12T00:49:32;4.53;;;2.70;;
7334;SDS011;3708;42.632;23.378;2023-08-12T00:51:59;6.57;;;2.90;;
7334;SDS011;3708;42.632;23.378;2023-08-12T00:54:29;7.83;;;2.97;;
7334;SDS011;3708;42.632;23.378;2023-08-12T00:56:55;3.47;;;3.00;;
7334;SDS011;3708;42.632;23.378;2023-08-12T00:59:22;3.67;;;2.80;;
7334;SDS011;3708;42.632;23.378;2023-08-12T01:01:50;2.97;;;2.53;;
7334;SDS011;3708;42.632;23.378;2023-08-12T01:04:17;3.03;;;2.73;;
7334;SDS011;3708;42.632;23.378;2023-08-12T01:06:45;3.40;;;3.10;;
7334;SDS011;3708;42.632;23.378;2023-08-12T01:09:12;4.03;;;2.83;;
7334;SDS011;3708;42.632;23.378;2023-08-12T01:11:41;5.17;;;3.07;;
7334;SDS011;3708;42.632;23.378;2023-08-12T01:14:13;3.87;;;2.80;;
7334;SDS011;3708;42.632;23.378;2023-08-12T01:16:53;5.20;;;2.73;;
7334;SDS011;3708;42.632;23.378;2023-08-12T01:19:28;4.03;;;3.17;;
7334;SDS011;3708;42.632;23.378;2023-08-12T01:21:59;6.70;;;3.23;;
7334;SDS011;3708;42.632;23.378;2023-08-12T01:24:32;2.53;;;2.30;;
7334;SDS011;3708;42.632;23.378;2023-08-12T01:27:01;3.10;;;2.80;;
7334;SDS011;3708;42.632;23.378;2023-08-12T01:29:28;2.97;;;2.67;;
7334;SDS011;3708;42.632;23.378;2023-08-12T01:31:57;2.90;;;2.60;;
7334;SDS011;3708;42.632;23.378;2023-08-12T01:34:31;5.23;;;3.10;;
7334;SDS011;3708;42.632;23.378;2023-08-12T01:37:06;6.77;;;3.00;;
7334;SDS011;3708;42.632;23.378;2023-08-12T01:39:39;3.83;;;3.30;;
7334;SDS011;3708;42.632;23.378;2023-08-12T01:42:08;4.70;;;2.87;;
7334;SDS011;3708;42.632;23.378;2023-08-12T01:44:38;4.57;;;2.93;;
7334;SDS011;3708;42.632;23.378;2023-08-12T01:47:05;5.17;;;2.83;;
7334;SDS011;3708;42.632;23.378;2023-08-12T01:49:32;4.60;;;2.77;;
7334;SDS011;3708;42.632;23.378;2023-08-12T01:51:59;3.27;;;2.90;;
7334;SDS011;3708;42.632;23.378;2023-08-12T01:54:26;3.60;;;3.27;;
7334;SDS011;3708;42.632;23.378;2023-08-12T01:56:59;3.57;;;2.90;;
7334;SDS011;3708;42.632;23.378;2023-08-12T01:59:27;4.00;;;2.77;;
7334;SDS011;3708;42.632;23.378;2023-08-12T02:01:53;4.50;;;2.90;;
7334;SDS011;3708;42.632;23.378;2023-08-12T02:04:20;4.63;;;2.90;;
7334;SDS011;3708;42.632;23.378;2023-08-12T02:06:47;3.20;;;2.53;;
7334;SDS011;3708;42.632;23.378;2023-08-12T02:09:16;6.13;;;2.90;;
7334;SDS011;3708;42.632;23.378;2023-08-12T02:11:43;3.43;;;3.13;;
7334;SDS011;3708;42.632;23.378;2023-08-12T02:14:11;3.33;;;2.97;;
7334;SDS011;3708;42.632;23.378;2023-08-12T02:16:38;3.67;;;2.73;;
7334;SDS011;3708;42.632;23.378;2023-08-12T02:19:05;5.77;;;2.87;;
7334;SDS011;3708;42.632;23.378;2023-08-12T02:21:32;3.63;;;2.83;;
7334;SDS011;3708;42.632;23.378;2023-08-12T02:23:59;3.83;;;2.80;;
7334;SDS011;3708;42.632;23.378;2023-08-12T02:26:26;3.33;;;3.03;;
7334;SDS011;3708;42.632;23.378;2023-08-12T02:28:52;4.60;;;2.70;;
7334;SDS011;3708;42.632;23.378;2023-08-12T02:31:21;3.53;;;3.17;;
7334;SDS011;3708;42.632;23.378;2023-08-12T02:33:48;3.93;;;3.13;;
7334;SDS011;3708;42.632;23.378;2023-08-12T02:36:15;3.97;;;3.27;;
7334;SDS011;3708;42.632;23.378;2023-08-12T02:38:43;5.47;;;2.97;;
7334;SDS011;3708;42.632;23.378;2023-08-12T02:41:09;3.47;;;3.17;;
7334;SDS011;3708;42.632;23.378;2023-08-12T02:43:36;4.13;;;3.30;;
7334;SDS011;3708;42.632;23.378;2023-08-12T02:46:03;4.73;;;3.37;;
7334;SDS011;3708;42.632;23.378;2023-08-12T02:48:33;4.97;;;3.33;;
7334;SDS011;3708;42.632;23.378;2023-08-12T02:51:01;8.43;;;4.23;;
7334;SDS011;3708;42.632;23.378;2023-08-12T02:53:28;5.83;;;4.77;;
7334;SDS011;3708;42.632;23.378;2023-08-12T02:55:55;7.27;;;3.80;;
7334;SDS011;3708;42.632;23.378;2023-08-12T02:58:22;5.80;;;4.20;;
7334;SDS011;3708;42.632;23.378;2023-08-12T03:00:49;6.77;;;4.93;;
7334;SDS011;3708;42.632;23.378;2023-08-12T03:03:16;5.47;;;4.17;;
7334;SDS011;3708;42.632;23.378;2023-08-12T03:05:46;9.67;;;6.07;;
7334;SDS011;3708;42.632;23.378;2023-08-12T03:08:13;5.67;;;3.70;;
7334;SDS011;3708;42.632;23.378;2023-08-12T03:10:40;5.53;;;3.10;;
7334;SDS011;3708;42.632;23.378;2023-08-12T03:13:07;3.93;;;3.23;;
7334;SDS011;3708;42.632;23.378;2023-08-12T03:15:34;4.63;;;3.00;;
7334;SDS011;3708;42.632;23.378;2023-08-12T03:18:05;5.73;;;3.10;;
7334;SDS011;3708;42.632;23.378;2023-08-12T03:20:33;5.10;;;3.47;;
7334;SDS011;3708;42.632;23.378;2023-08-12T03:23:01;5.30;;;3.53;;
7334;SDS011;3708;42.632;23.378;2023-08-12T03:25:28;5.77;;;3.57;;
7334;SDS011;3708;42.632;23.378;2023-08-12T03:27:55;4.83;;;3.73;;
7334;SDS011;3708;42.632;23.378;2023-08-12T03:30:22;6.00;;;4.40;;
7334;SDS011;3708;42.632;23.378;2023-08-12T03:32:50;5.40;;;4.13;;
7334;SDS011;3708;42.632;23.378;2023-08-12T03:35:18;4.57;;;3.23;;
7334;SDS011;3708;42.632;23.378;2023-08-12T03:37:45;7.37;;;4.47;;
7334;SDS011;3708;42.632;23.378;2023-08-12T03:40:13;4.50;;;3.80;;
7334;SDS011;3708;42.632;23.378;2023-08-12T03:42:40;5.40;;;2.93;;
7334;SDS011;3708;42.632;23.378;2023-08-12T03:45:07;3.07;;;2.77;;
7334;SDS011;3708;42.632;23.378;2023-08-12T03:47:34;6.00;;;3.30;;
7334;SDS011;3708;42.632;23.378;2023-08-12T03:50:01;3.63;;;2.97;;
7334;SDS011;3708;42.632;23.378;2023-08-12T03:52:30;5.47;;;3.30;;
7334;SDS011;3708;42.632;23.378;2023-08-12T03:54:57;3.33;;;3.03;;
7334;SDS011;3708;42.632;23.378;2023-08-12T03:57:26;11.23;;;3.80;;
7334;SDS011;3708;42.632;23.378;2023-08-12T03:59:56;4.27;;;3.40;;
7334;SDS011;3708;42.632;23.378;2023-08-12T04:02:24;6.57;;;3.90;;
7334;SDS011;3708;42.632;23.378;2023-08-12T04:04:52;4.67;;;3.63;;
7334;SDS011;3708;42.632;23.378;2023-08-12T04:07:20;4.17;;;3.33;;
7334;SDS011;3708;42.632;23.378;2023-08-12T04:09:49;4.10;;;3.50;;
7334;SDS011;3708;42.632;23.378;2023-08-12T04:12:16;7.37;;;3.47;;
7334;SDS011;3708;42.632;23.378;2023-08-12T04:14:44;12.37;;;3.90;;
7334;SDS011;3708;42.632;23.378;2023-08-12T04:17:13;3.70;;;3.40;;
7334;SDS011;3708;42.632;23.378;2023-08-12T04:19:40;5.13;;;3.30;;
7334;SDS011;3708;42.632;23.378;2023-08-12T04:22:06;5.23;;;3.30;;
7334;SDS011;3708;42.632;23.378;2023-08-12T04:24:33;7.63;;;3.77;;
7334;SDS011;3708;42.632;23.378;2023-08-12T04:27:00;3.93;;;3.47;;
7334;SDS011;3708;42.632;23.378;2023-08-12T04:29:27;5.13;;;3.47;;
7334;SDS011;3708;42.632;23.378;2023-08-12T04:31:57;5.87;;;3.77;;
7334;SDS011;3708;42.632;23.378;2023-08-12T04:34:24;6.03;;;3.63;;
7334;SDS011;3708;42.632;23.378;2023-08-12T04:36:51;4.20;;;3.20;;
7334;SDS011;3708;42.632;23.378;2023-08-12T04:39:19;5.47;;;3.23;;
7334;SDS011;3708;42.632;23.378;2023-08-12T04:41:47;8.57;;;3.60;;
7334;SDS011;3708;42.632;23.378;2023-08-12T04:44:16;7.67;;;3.67;;
7334;SDS011;3708;42.632;23.378;2023-08-12T04:46:43;6.53;;;3.23;;
7334;SDS011;3708;42.632;23.378;2023-08-12T04:49:12;5.83;;;3.23;;
7334;SDS011;3708;42.632;23.378;2023-08-12T04:51:39;6.63;;;3.23;;
7334;SDS011;3708;42.632;23.378;2023-08-12T04:54:10;4.37;;;3.20;;
7334;SDS011;3708;42.632;23.378;2023-08-12T04:56:37;4.93;;;3.60;;
7334;SDS011;3708;42.632;23.378;2023-08-12T04:59:03;7.53;;;3.00;;
7334;SDS011;3708;42.632;23.378;2023-08-12T05:01:32;5.00;;;3.63;;
7334;SDS011;3708;42.632;23.378;2023-08-12T05:03:59;4.83;;;3.10;;
7334;SDS011;3708;42.632;23.378;2023-08-12T05:06:27;3.70;;;2.90;;
7334;SDS011;3708;42.632;23.378;2023-08-12T05:08:54;10.90;;;3.53;;
7334;SDS011;3708;42.632;23.378;2023-08-12T05:11:20;6.70;;;3.00;;
7334;SDS011;3708;42.632;23.378;2023-08-12T05:13:47;5.60;;;2.73;;
7334;SDS011;3708;42.632;23.378;2023-08-12T05:16:14;3.77;;;2.60;;
7334;SDS011;3708;42.632;23.378;2023-08-12T05:18:41;3.77;;;2.83;;
7334;SDS011;3708;42.632;23.378;2023-08-12T05:21:08;4.10;;;2.87;;
7334;SDS011;3708;42.632;23.378;2023-08-12T05:23:36;4.00;;;3.30;;
7334;SDS011;3708;42.632;23.378;2023-08-12T05:26:03;3.90;;;3.27;;
7334;SDS011;3708;42.632;23.378;2023-08-12T05:28:30;3.10;;;2.80;;
7334;SDS011;3708;42.632;23.378;2023-08-12T05:30:57;4.60;;;3.07;;
7334;SDS011;3708;42.632;23.378;2023-08-12T05:33:24;5.40;;;2.97;;
7334;SDS011;3708;42.632;23.378;2023-08-12T05:35:51;4.63;;;3.60;;
7334;SDS011;3708;42.632;23.378;2023-08-12T05:38:18;5.53;;;3.00;;
7334;SDS011;3708;42.632;23.378;2023-08-12T05:40:48;6.50;;;3.40;;
7334;SDS011;3708;42.632;23.378;2023-08-12T05:43:16;4.70;;;3.40;;
7334;SDS011;3708;42.632;23.378;2023-08-12T05:45:43;6.03;;;3.20;;
7334;SDS011;3708;42.632;23.378;2023-08-12T05:48:10;3.13;;;2.50;;
7334;SDS011;3708;42.632;23.378;2023-08-12T05:50:37;4.00;;;3.27;;
7334;SDS011;3708;42.632;23.378;2023-08-12T05:53:04;8.83;;;3.07;;
7334;SDS011;3708;42.632;23.378;2023-08-12T05:55:32;4.63;;;2.47;;
7334;SDS011;3708;42.632;23.378;2023-08-12T05:58:01;3.70;;;2.77;;
7334;SDS011;3708;42.632;23.378;2023-08-12T06:00:28;3.30;;;2.33;;
7334;SDS011;3708;42.632;23.378;2023-08-12T06:02:56;4.03;;;3.07;;
7334;SDS011;3708;42.632;23.378;2023-08-12T06:05:24;2.97;;;2.50;;
7334;SDS011;3708;42.632;23.378;2023-08-12T06:07:51;3.63;;;2.60;;
7334;SDS011;3708;42.632;23.378;2023-08-12T06:10:18;6.17;;;3.17;;
7334;SDS011;3708;42.632;23.378;2023-08-12T06:12:44;6.63;;;3.10;;
7334;SDS011;3708;42.632;23.378;2023-08-12T06:15:12;4.27;;;3.27;;
7334;SDS011;3708;42.632;23.378;2023-08-12T06:17:39;3.30;;;2.63;;
7334;SDS011;3708;42.632;23.378;2023-08-12T06:20:07;3.73;;;2.60;;
7334;SDS011;3708;42.632;23.378;2023-08-12T06:22:35;3.50;;;2.80;;
7334;SDS011;3708;42.632;23.378;2023-08-12T06:25:02;4.60;;;2.87;;
7334;SDS011;3708;42.632;23.378;2023-08-12T06:27:29;3.30;;;2.37;;
7334;SDS011;3708;42.632;23.378;2023-08-12T06:29:55;5.73;;;2.90;;
7334;SDS011;3708;42.632;23.378;2023-08-12T06:32:25;3.93;;;2.43;;
7334;SDS011;3708;42.632;23.378;2023-08-12T06:34:51;5.87;;;2.43;;
7334;SDS011;3708;42.632;23.378;2023-08-12T06:37:18;3.47;;;2.40;;
7334;SDS011;3708;42.632;23.378;2023-08-12T06:39:50;8.67;;;3.10;;
7334;SDS011;3708;42.632;23.378;2023-08-12T06:42:20;4.40;;;2.93;;
7334;SDS011;3708;42.632;23.378;2023-08-12T06:44:49;5.43;;;2.70;;
7334;SDS011;3708;42.632;23.378;2023-08-12T06:47:20;4.20;;;2.87;;
7334;SDS011;3708;42.632;23.378;2023-08-12T06:49:50;4.87;;;2.80;;
7334;SDS011;3708;42.632;23.378;2023-08-12T06:52:17;6.90;;;3.03;;
7334;SDS011;3708;42.632;23.378;2023-08-12T06:54:45;6.33;;;2.70;;
7334;SDS011;3708;42.632;23.378;2023-08-12T06:57:20;5.10;;;2.80;;
7334;SDS011;3708;42.632;23.378;2023-08-12T06:59:49;3.87;;;2.57;;
7334;SDS011;3708;42.632;23.378;2023-08-12T07:02:15;5.67;;;2.93;;
7334;SDS011;3708;42.632;23.378;2023-08-12T07:04:44;3.20;;;2.57;;
7334;SDS011;3708;42.632;23.378;2023-08-12T07:07:14;7.73;;;3.17;;
7334;SDS011;3708;42.632;23.378;2023-08-12T07:09:44;5.47;;;3.07;;
7334;SDS011;3708;42.632;23.378;2023-08-12T07:12:10;4.97;;;2.60;;
7334;SDS011;3708;42.632;23.378;2023-08-12T07:14:37;8.70;;;3.10;;
7334;SDS011;3708;42.632;23.378;2023-08-12T07:17:12;7.15;;;2.88;;
7334;SDS011;3708;42.632;23.378;2023-08-12T07:19:39;4.97;;;2.95;;
7334;SDS011;3708;42.632;23.378;2023-08-12T07:22:08;5.80;;;2.90;;
7334;SDS011;3708;42.632;23.378;2023-08-12T07:24:47;4.82;;;2.97;;
7334;SDS011;3708;42.632;23.378;2023-08-12T07:27:17;8.77;;;3.15;;
7334;SDS011;3708;42.632;23.378;2023-08-12T07:29:45;4.38;;;3.00;;
7334;SDS011;3708;42.632;23.378;2023-08-12T07:32:15;7.75;;;2.88;;
7334;SDS011;3708;42.632;23.378;2023-08-12T07:34:47;3.00;;;2.53;;
7334;SDS011;3708;42.632;23.378;2023-08-12T07:37:15;4.40;;;2.80;;
7334;SDS011;3708;42.632;23.378;2023-08-12T07:39:50;6.80;;;3.08;;
7334;SDS011;3708;42.632;23.378;2023-08-12T07:42:21;4.72;;;2.58;;
7334;SDS011;3708;42.632;23.378;2023-08-12T07:44:49;8.52;;;2.78;;
7334;SDS011;3708;42.632;23.378;2023-08-12T07:47:16;6.90;;;2.85;;
7334;SDS011;3708;42.632;23.378;2023-08-12T07:49:51;4.53;;;3.25;;
7334;SDS011;3708;42.632;23.378;2023-08-12T07:52:25;5.60;;;2.40;;
7334;SDS011;3708;42.632;23.378;2023-08-12T07:55:06;7.18;;;3.33;;
7334;SDS011;3708;42.632;23.378;2023-08-12T07:57:35;2.78;;;2.47;;
7334;SDS011;3708;42.632;23.378;2023-08-12T08:00:03;4.72;;;3.03;;
7334;SDS011;3708;42.632;23.378;2023-08-12T08:02:35;3.80;;;2.72;;
7334;SDS011;3708;42.632;23.378;2023-08-12T08:05:02;2.90;;;2.50;;
7334;SDS011;3708;42.632;23.378;2023-08-12T08:07:30;7.53;;;2.67;;
7334;SDS011;3708;42.632;23.378;2023-08-12T08:10:00;3.30;;;2.40;;
7334;SDS011;3708;42.632;23.378;2023-08-12T08:12:28;6.18;;;3.10;;
7334;SDS011;3708;42.632;23.378;2023-08-12T08:14:55;5.43;;;2.47;;
7334;SDS011;3708;42.632;23.378;2023-08-12T08:17:33;2.95;;;2.50;;
7334;SDS011;3708;42.632;23.378;2023-08-12T08:20:01;5.28;;;2.50;;
7334;SDS011;3708;42.632;23.378;2023-08-12T08:22:35;3.15;;;2.60;;
7334;SDS011;3708;42.632;23.378;2023-08-12T08:25:07;5.53;;;2.33;;
7334;SDS011;3708;42.632;23.378;2023-08-12T08:27:38;3.10;;;2.47;;
7334;SDS011;3708;42.632;23.378;2023-08-12T08:30:05;3.05;;;2.47;;
7334;SDS011;3708;42.632;23.378;2023-08-12T08:32:34;4.45;;;2.38;;
7334;SDS011;3708;42.632;23.378;2023-08-12T08:35:00;3.60;;;2.40;;
7334;SDS011;3708;42.632;23.378;2023-08-12T08:37:27;5.00;;;2.65;;
7334;SDS011;3708;42.632;23.378;2023-08-12T08:39:54;4.10;;;3.00;;
7334;SDS011;3708;42.632;23.378;2023-08-12T08:42:21;4.68;;;2.35;;
7334;SDS011;3708;42.632;23.378;2023-08-12T08:44:52;4.63;;;2.70;;
7334;SDS011;3708;42.632;23.378;2023-08-12T08:47:19;3.72;;;2.97;;
7334;SDS011;3708;42.632;23.378;2023-08-12T08:49:51;3.50;;;2.65;;
7334;SDS011;3708;42.632;23.378;2023-08-12T08:52:21;6.43;;;2.70;;
7334;SDS011;3708;42.632;23.378;2023-08-12T08:54:49;6.22;;;3.00;;
7334;SDS011;3708;42.632;23.378;2023-08-12T08:57:16;2.85;;;2.28;;
7334;SDS011;3708;42.632;23.378;2023-08-12T08:59:45;3.05;;;2.25;;
7334;SDS011;3708;42.632;23.378;2023-08-12T09:02:15;3.97;;;2.22;;
7334;SDS011;3708;42.632;23.378;2023-08-12T09:04:43;6.30;;;2.88;;
7334;SDS011;3708;42.632;23.378;2023-08-12T09:07:11;6.35;;;3.17;;
7334;SDS011;3708;42.632;23.378;2023-08-12T09:09:39;4.75;;;2.42;;
7334;SDS011;3708;42.632;23.378;2023-08-12T09:12:13;2.78;;;2.28;;
7334;SDS011;3708;42.632;23.378;2023-08-12T09:14:41;7.25;;;2.67;;
7334;SDS011;3708;42.632;23.378;2023-08-12T09:17:08;6.05;;;2.47;;
7334;SDS011;3708;42.632;23.378;2023-08-12T09:19:37;2.80;;;2.42;;
7334;SDS011;3708;42.632;23.378;2023-08-12T09:22:04;4.72;;;2.85;;
7334;SDS011;3708;42.632;23.378;2023-08-12T09:24:31;6.35;;;2.53;;
7334;SDS011;3708;42.632;23.378;2023-08-12T09:26:58;4.25;;;2.70;;
7334;SDS011;3708;42.632;23.378;2023-08-12T09:29:29;4.65;;;2.40;;
7334;SDS011;3708;42.632;23.378;2023-08-12T09:32:09;6.70;;;2.67;;
7334;SDS011;3708;42.632;23.378;2023-08-12T09:34:43;5.22;;;2.47;;
7334;SDS011;3708;42.632;23.378;2023-08-12T09:37:12;4.85;;;2.13;;
7334;SDS011;3708;42.632;23.378;2023-08-12T09:39:40;3.60;;;2.22;;
7334;SDS011;3708;42.632;23.378;2023-08-12T09:42:07;5.47;;;2.75;;
7334;SDS011;3708;42.632;23.378;2023-08-12T09:44:36;4.60;;;2.35;;
7334;SDS011;3708;42.632;23.378;2023-08-12T09:47:09;2.88;;;2.33;;
7334;SDS011;3708;42.632;23.378;2023-08-12T09:49:40;2.35;;;2.15;;
7334;SDS011;3708;42.632;23.378;2023-08-12T09:52:08;5.25;;;2.28;;
7334;SDS011;3708;42.632;23.378;2023-08-12T09:54:35;3.72;;;3.05;;
7334;SDS011;3708;42.632;23.378;2023-08-12T09:57:02;4.25;;;2.38;;
7334;SDS011;3708;42.632;23.378;2023-08-12T09:59:35;2.80;;;2.28;;
7334;SDS011;3708;42.632;23.378;2023-08-12T10:02:05;4.28;;;2.40;;
7334;SDS011;3708;42.632;23.378;2023-08-12T10:04:35;2.78;;;2.40;;
7334;SDS011;3708;42.632;23.378;2023-08-12T10:07:08;2.92;;;2.42;;
7334;SDS011;3708;42.632;23.378;2023-08-12T10:09:38;2.53;;;2.30;;
7334;SDS011;3708;42.632;23.378;2023-08-12T10:12:09;5.75;;;2.30;;
7334;SDS011;3708;42.632;23.378;2023-08-12T10:14:37;4.18;;;2.33;;
7334;SDS011;3708;42.632;23.378;2023-08-12T10:17:05;3.08;;;2.00;;
7334;SDS011;3708;42.632;23.378;2023-08-12T10:19:34;5.13;;;2.20;;
7334;SDS011;3708;42.632;23.378;2023-08-12T10:22:03;2.47;;;2.20;;
7334;SDS011;3708;42.632;23.378;2023-08-12T10:24:35;2.90;;;2.20;;
7334;SDS011;3708;42.632;23.378;2023-08-12T10:27:05;2.30;;;2.03;;
7334;SDS011;3708;42.632;23.378;2023-08-12T10:29:35;4.38;;;2.30;;
7334;SDS011;3708;42.632;23.378;2023-08-12T10:32:08;2.45;;;2.22;;
7334;SDS011;3708;42.632;23.378;2023-08-12T10:35:06;3.10;;;2.05;;
7334;SDS011;3708;42.632;23.378;2023-08-12T10:37:47;3.38;;;2.15;;
7334;SDS011;3708;42.632;23.378;2023-08-12T10:40:25;2.70;;;2.15;;
7334;SDS011;3708;42.632;23.378;2023-08-12T10:42:52;2.78;;;1.83;;
7334;SDS011;3708;42.632;23.378;2023-08-12T10:45:20;2.53;;;2.17;;
7334;SDS011;3708;42.632;23.378;2023-08-12T10:48:09;2.10;;;1.90;;
7334;SDS011;3708;42.632;23.378;2023-08-12T10:50:56;4.45;;;2.28;;
7334;SDS011;3708;42.632;23.378;2023-08-12T10:53:28;5.50;;;2.40;;
7334;SDS011;3708;42.632;23.378;2023-08-12T10:56:01;3.38;;;2.25;;
7334;SDS011;3708;42.632;23.378;2023-08-12T10:58:34;4.25;;;2.20;;
7334;SDS011;3708;42.632;23.378;2023-08-12T11:01:08;5.40;;;2.08;;
7334;SDS011;3708;42.632;23.378;2023-08-12T11:03:44;1.60;;;1.50;;
7334;SDS011;3708;42.632;23.378;2023-08-12T11:06:12;4.07;;;2.42;;
7334;SDS011;3708;42.632;23.378;2023-08-12T11:08:45;1.98;;;1.80;;
7334;SDS011;3708;42.632;23.378;2023-08-12T11:11:21;2.08;;;1.60;;
7334;SDS011;3708;42.632;23.378;2023-08-12T11:13:55;2.80;;;1.98;;
7334;SDS011;3708;42.632;23.378;2023-08-12T11:16:31;2.30;;;2.00;;
7334;SDS011;3708;42.632;23.378;2023-08-12T11:19:01;2.17;;;1.85;;
7334;SDS011;3708;42.632;23.378;2023-08-12T11:21:29;5.20;;;1.70;;
7334;SDS011;3708;42.632;23.378;2023-08-12T11:23:57;3.78;;;2.10;;
7334;SDS011;3708;42.632;23.378;2023-08-12T11:26:27;11.80;;;3.80;;
7334;SDS011;3708;42.632;23.378;2023-08-12T11:28:54;2.25;;;2.00;;
7334;SDS011;3708;42.632;23.378;2023-08-12T11:31:22;2.60;;;1.95;;
7334;SDS011;3708;42.632;23.378;2023-08-12T11:33:54;2.25;;;1.75;;
7334;SDS011;3708;42.632;23.378;2023-08-12T11:36:21;3.17;;;2.10;;
7334;SDS011;3708;42.632;23.378;2023-08-12T11:38:48;2.67;;;2.38;;
7334;SDS011;3708;42.632;23.378;2023-08-12T11:41:17;3.80;;;1.90;;
7334;SDS011;3708;42.632;23.378;2023-08-12T11:43:45;2.30;;;1.60;;
7334;SDS011;3708;42.632;23.378;2023-08-12T11:46:12;2.13;;;1.50;;
7334;SDS011;3708;42.632;23.378;2023-08-12T11:48:43;2.28;;;1.73;;
7334;SDS011;3708;42.632;23.378;2023-08-12T11:51:10;3.17;;;1.55;;
7334;SDS011;3708;42.632;23.378;2023-08-12T11:53:38;2.60;;;1.70;;
7334;SDS011;3708;42.632;23.378;2023-08-12T11:56:05;1.88;;;1.70;;
7334;SDS011;3708;42.632;23.378;2023-08-12T11:58:35;1.60;;;1.50;;
7334;SDS011;3708;42.632;23.378;2023-08-12T12:01:04;2.55;;;1.50;;
7334;SDS011;3708;42.632;23.378;2023-08-12T12:03:31;6.50;;;1.98;;
7334;SDS011;3708;42.632;23.378;2023-08-12T12:05:58;2.58;;;1.52;;
7334;SDS011;3708;42.632;23.378;2023-08-12T12:08:25;2.90;;;1.90;;
7334;SDS011;3708;42.632;23.378;2023-08-12T12:10:54;2.67;;;1.50;;
7334;SDS011;3708;42.632;23.378;2023-08-12T12:13:21;1.50;;;1.40;;
7334;SDS011;3708;42.632;23.378;2023-08-12T12:15:50;1.40;;;1.30;;
7334;SDS011;3708;42.632;23.378;2023-08-12T12:18:20;1.83;;;1.50;;
7334;SDS011;3708;42.632;23.378;2023-08-12T12:20:53;1.48;;;1.38;;
7334;SDS011;3708;42.632;23.378;2023-08-12T12:23:22;1.73;;;1.48;;
7334;SDS011;3708;42.632;23.378;2023-08-12T12:25:56;4.45;;;1.60;;
7334;SDS011;3708;42.632;23.378;2023-08-12T12:28:24;4.22;;;1.45;;
7334;SDS011;3708;42.632;23.378;2023-08-12T12:30:50;1.70;;;1.50;;
7334;SDS011;3708;42.632;23.378;2023-08-12T12:33:17;1.92;;;1.60;;
7334;SDS011;3708;42.632;23.378;2023-08-12T12:35:45;2.42;;;1.60;;
7334;SDS011;3708;42.632;23.378;2023-08-12T12:38:12;2.92;;;1.50;;
7334;SDS011;3708;42.632;23.378;2023-08-12T12:40:39;2.00;;;1.80;;
7334;SDS011;3708;42.632;23.378;2023-08-12T12:43:06;2.05;;;1.73;;
7334;SDS011;3708;42.632;23.378;2023-08-12T12:45:33;2.25;;;1.83;;
7334;SDS011;3708;42.632;23.378;2023-08-12T12:48:00;1.73;;;1.30;;
7334;SDS011;3708;42.632;23.378;2023-08-12T12:50:27;1.98;;;1.77;;
7334;SDS011;3708;42.632;23.378;2023-08-12T12:52:55;2.70;;;2.20;;
7334;SDS011;3708;42.632;23.378;2023-08-12T12:55:22;2.38;;;1.80;;
7334;SDS011;3708;42.632;23.378;2023-08-12T12:57:49;3.80;;;2.05;;
7334;SDS011;3708;42.632;23.378;2023-08-12T13:00:16;2.65;;;1.90;;
7334;SDS011;3708;42.632;23.378;2023-08-12T13:02:48;4.28;;;1.77;;
7334;SDS011;3708;42.632;23.378;2023-08-12T13:05:15;7.05;;;1.83;;
7334;SDS011;3708;42.632;23.378;2023-08-12T13:07:43;2.28;;;1.83;;
7334;SDS011;3708;42.632;23.378;2023-08-12T13:10:11;2.88;;;1.67;;
7334;SDS011;3708;42.632;23.378;2023-08-12T13:12:38;6.10;;;2.08;;
7334;SDS011;3708;42.632;23.378;2023-08-12T13:15:05;2.42;;;1.73;;
7334;SDS011;3708;42.632;23.378;2023-08-12T13:17:33;1.88;;;1.60;;
7334;SDS011;3708;42.632;23.378;2023-08-12T13:20:00;3.00;;;1.83;;
7334;SDS011;3708;42.632;23.378;2023-08-12T13:22:27;2.55;;;1.92;;
7334;SDS011;3708;42.632;23.378;2023-08-12T13:24:54;1.80;;;1.67;;
7334;SDS011;3708;42.632;23.378;2023-08-12T13:27:22;3.88;;;2.00;;
7334;SDS011;3708;42.632;23.378;2023-08-12T13:29:50;2.97;;;1.98;;
7334;SDS011;3708;42.632;23.378;2023-08-12T13:32:17;2.38;;;1.92;;
7334;SDS011;3708;42.632;23.378;2023-08-12T13:34:44;3.13;;;1.75;;
7334;SDS011;3708;42.632;23.378;2023-08-12T13:37:12;3.65;;;1.80;;
7334;SDS011;3708;42.632;23.378;2023-08-12T13:39:40;2.47;;;2.28;;
7334;SDS011;3708;42.632;23.378;2023-08-12T13:42:07;2.00;;;1.73;;
7334;SDS011;3708;42.632;23.378;2023-08-12T13:44:35;4.00;;;2.10;;
7334;SDS011;3708;42.632;23.378;2023-08-12T13:47:02;3.70;;;1.90;;
7334;SDS011;3708;42.632;23.378;2023-08-12T13:49:29;2.60;;;2.05;;
7334;SDS011;3708;42.632;23.378;2023-08-12T13:51:56;2.92;;;2.10;;
7334;SDS011;3708;42.632;23.378;2023-08-12T13:54:24;2.60;;;1.95;;
7334;SDS011;3708;42.632;23.378;2023-08-12T13:56:51;3.20;;;2.35;;
7334;SDS011;3708;42.632;23.378;2023-08-12T13:59:18;1.92;;;1.70;;
7334;SDS011;3708;42.632;23.378;2023-08-12T14:01:46;2.60;;;1.95;;
7334;SDS011;3708;42.632;23.378;2023-08-12T14:04:13;3.92;;;1.95;;
7334;SDS011;3708;42.632;23.378;2023-08-12T14:06:40;3.08;;;2.08;;
7334;SDS011;3708;42.632;23.378;2023-08-12T14:09:07;4.53;;;1.98;;
7334;SDS011;3708;42.632;23.378;2023-08-12T14:11:34;1.90;;;1.70;;
7334;SDS011;3708;42.632;23.378;2023-08-12T14:14:01;2.42;;;1.65;;
7334;SDS011;3708;42.632;23.378;2023-08-12T14:16:29;2.65;;;2.00;;
7334;SDS011;3708;42.632;23.378;2023-08-12T14:18:59;1.98;;;1.77;;
7334;SDS011;3708;42.632;23.378;2023-08-12T14:21:27;2.25;;;2.00;;
7334;SDS011;3708;42.632;23.378;2023-08-12T14:23:54;2.15;;;1.73;;
7334;SDS011;3708;42.632;23.378;2023-08-12T14:26:21;2.20;;;1.85;;
7334;SDS011;3708;42.632;23.378;2023-08-12T14:28:48;2.80;;;2.20;;
7334;SDS011;3708;42.632;23.378;2023-08-12T14:31:15;4.57;;;1.80;;
7334;SDS011;3708;42.632;23.378;2023-08-12T14:33:42;2.95;;;1.90;;
7334;SDS011;3708;42.632;23.378;2023-08-12T14:36:10;3.05;;;1.90;;
7334;SDS011;3708;42.632;23.378;2023-08-12T14:38:37;2.15;;;1.70;;
7334;SDS011;3708;42.632;23.378;2023-08-12T14:41:04;2.65;;;2.03;;
7334;SDS011;3708;42.632;23.378;2023-08-12T14:43:30;1.95;;;1.80;;
7334;SDS011;3708;42.632;23.378;2023-08-12T14:45:57;2.30;;;1.98;;
7334;SDS011;3708;42.632;23.378;2023-08-12T14:48:25;3.38;;;2.33;;
7334;SDS011;3708;42.632;23.378;2023-08-12T14:50:52;2.55;;;2.20;;
7334;SDS011;3708;42.632;23.378;2023-08-12T14:53:20;2.35;;;1.85;;
7334;SDS011;3708;42.632;23.378;2023-08-12T14:55:47;3.85;;;1.90;;
7334;SDS011;3708;42.632;23.378;2023-08-12T14:58:15;2.53;;;1.80;;
7334;SDS011;3708;42.632;23.378;2023-08-12T15:00:41;3.08;;;2.25;;
7334;SDS011;3708;42.632;23.378;2023-08-12T15:03:09;2.22;;;2.03;;
7334;SDS011;3708;42.632;23.378;2023-08-12T15:05:39;6.40;;;2.00;;
7334;SDS011;3708;42.632;23.378;2023-08-12T15:08:06;6.03;;;2.20;;